sensor_id;sensor_type;location;lat;lon;timestamp;P1;durP1;ratioP1;P2;durP2;ratioP2
63089;SDS011;49174;43.198;27.824;2023-10-09T00:00:11;3.00;;;1.13;;
63089;SDS011;49174;43.198;27.824;2023-10-09T00:03:05;2.40;;;1.02;;
63089;SDS011;49174;43.198;27.824;2023-10-09T00:05:32;1.30;;;0.70;;
63089;SDS011;49174;43.198;27.824;2023-10-09T00:08:18;1.60;;;0.88;;
63089;SDS011;49174;43.198;27.824;2023-10-09T00:10:46;0.88;;;0.60;;
63089;SDS011;49174;43.198;27.824;2023-10-09T00:13:21;2.15;;;0.98;;
63089;SDS011;49174;43.198;27.824;2023-10-09T00:15:58;2.53;;;1.00;;
63089;SDS011;49174;43.198;27.824;2023-10-09T00:18:40;3.58;;;0.98;;
63089;SDS011;49174;43.198;27.824;2023-10-09T00:21:18;0.93;;;0.52;;
63089;SDS011;49174;43.198;27.824;2023-10-09T00:23:47;0.95;;;0.60;;
63089;SDS011;49174;43.198;27.824;2023-10-09T00:26:24;3.38;;;0.90;;
63089;SDS011;49174;43.198;27.824;2023-10-09T00:28:50;1.30;;;0.80;;
63089;SDS011;49174;43.198;27.824;2023-10-09T00:31:19;1.48;;;0.80;;
63089;SDS011;49174;43.198;27.824;2023-10-09T00:33:53;3.00;;;0.80;;
63089;SDS011;49174;43.198;27.824;2023-10-09T00:36:20;5.25;;;1.00;;
63089;SDS011;49174;43.198;27.824;2023-10-09T00:38:53;1.70;;;1.00;;
63089;SDS011;49174;43.198;27.824;2023-10-09T00:41:19;2.15;;;0.85;;
63089;SDS011;49174;43.198;27.824;2023-10-09T00:43:46;1.13;;;0.80;;
63089;SDS011;49174;43.198;27.824;2023-10-09T00:46:14;2.63;;;1.80;;
63089;SDS011;49174;43.198;27.824;2023-10-09T00:48:45;2.03;;;1.13;;
63089;SDS011;49174;43.198;27.824;2023-10-09T00:51:13;1.55;;;1.00;;
63089;SDS011;49174;43.198;27.824;2023-10-09T00:53:44;2.00;;;1.00;;
63089;SDS011;49174;43.198;27.824;2023-10-09T00:56:17;3.25;;;1.20;;
63089;SDS011;49174;43.198;27.824;2023-10-09T00:58:47;2.25;;;1.10;;
63089;SDS011;49174;43.198;27.824;2023-10-09T01:01:20;1.30;;;0.80;;
63089;SDS011;49174;43.198;27.824;2023-10-09T01:03:51;2.42;;;1.00;;
63089;SDS011;49174;43.198;27.824;2023-10-09T01:06:16;1.63;;;0.93;;
63089;SDS011;49174;43.198;27.824;2023-10-09T01:08:46;1.83;;;1.05;;
63089;SDS011;49174;43.198;27.824;2023-10-09T01:11:33;1.80;;;0.80;;
63089;SDS011;49174;43.198;27.824;2023-10-09T01:13:59;2.50;;;0.90;;
63089;SDS011;49174;43.198;27.824;2023-10-09T01:16:34;2.45;;;1.00;;
63089;SDS011;49174;43.198;27.824;2023-10-09T01:19:00;4.50;;;0.90;;
63089;SDS011;49174;43.198;27.824;2023-10-09T01:21:31;1.83;;;1.00;;
63089;SDS011;49174;43.198;27.824;2023-10-09T01:23:57;1.75;;;1.10;;
63089;SDS011;49174;43.198;27.824;2023-10-09T01:26:34;2.30;;;0.90;;
63089;SDS011;49174;43.198;27.824;2023-10-09T01:29:10;1.40;;;0.90;;
63089;SDS011;49174;43.198;27.824;2023-10-09T01:31:47;2.72;;;0.90;;
63089;SDS011;49174;43.198;27.824;2023-10-09T01:34:29;1.35;;;0.77;;
63089;SDS011;49174;43.198;27.824;2023-10-09T01:37:13;2.50;;;0.80;;
63089;SDS011;49174;43.198;27.824;2023-10-09T01:40:01;2.22;;;0.98;;
63089;SDS011;49174;43.198;27.824;2023-10-09T01:42:47;1.95;;;0.80;;
63089;SDS011;49174;43.198;27.824;2023-10-09T01:45:13;2.08;;;0.85;;
63089;SDS011;49174;43.198;27.824;2023-10-09T01:47:55;1.92;;;0.95;;
63089;SDS011;49174;43.198;27.824;2023-10-09T01:50:20;2.08;;;1.05;;
63089;SDS011;49174;43.198;27.824;2023-10-09T01:52:49;1.35;;;0.88;;
63089;SDS011;49174;43.198;27.824;2023-10-09T01:55:19;1.58;;;0.90;;
63089;SDS011;49174;43.198;27.824;2023-10-09T01:58:14;2.75;;;0.95;;
63089;SDS011;49174;43.198;27.824;2023-10-09T02:03:19;1.65;;;1.00;;
63089;SDS011;49174;43.198;27.824;2023-10-09T02:05:48;1.00;;;0.73;;
63089;SDS011;49174;43.198;27.824;2023-10-09T02:08:16;3.10;;;1.10;;
63089;SDS011;49174;43.198;27.824;2023-10-09T02:10:52;1.65;;;0.90;;
63089;SDS011;49174;43.198;27.824;2023-10-09T02:13:21;1.40;;;0.80;;
63089;SDS011;49174;43.198;27.824;2023-10-09T02:15:55;2.22;;;1.10;;
63089;SDS011;49174;43.198;27.824;2023-10-09T02:18:41;1.40;;;0.93;;
63089;SDS011;49174;43.198;27.824;2023-10-09T02:21:19;3.08;;;0.90;;
63089;SDS011;49174;43.198;27.824;2023-10-09T02:23:57;1.88;;;1.10;;
63089;SDS011;49174;43.198;27.824;2023-10-09T02:26:29;2.55;;;0.93;;
63089;SDS011;49174;43.198;27.824;2023-10-09T02:29:17;1.40;;;0.98;;
63089;SDS011;49174;43.198;27.824;2023-10-09T02:31:43;1.48;;;0.80;;
63089;SDS011;49174;43.198;27.824;2023-10-09T02:34:16;1.20;;;0.70;;
63089;SDS011;49174;43.198;27.824;2023-10-09T02:36:46;2.75;;;1.10;;
63089;SDS011;49174;43.198;27.824;2023-10-09T02:39:25;1.33;;;0.80;;
63089;SDS011;49174;43.198;27.824;2023-10-09T02:41:51;1.75;;;0.90;;
63089;SDS011;49174;43.198;27.824;2023-10-09T02:44:20;2.67;;;0.95;;
63089;SDS011;49174;43.198;27.824;2023-10-09T02:46:51;2.00;;;1.00;;
63089;SDS011;49174;43.198;27.824;2023-10-09T02:49:16;2.45;;;0.82;;
63089;SDS011;49174;43.198;27.824;2023-10-09T02:51:42;1.60;;;1.15;;
63089;SDS011;49174;43.198;27.824;2023-10-09T02:54:08;2.58;;;0.88;;
63089;SDS011;49174;43.198;27.824;2023-10-09T02:56:49;1.80;;;1.05;;
63089;SDS011;49174;43.198;27.824;2023-10-09T02:59:31;2.65;;;1.00;;
63089;SDS011;49174;43.198;27.824;2023-10-09T03:01:56;2.20;;;0.90;;
63089;SDS011;49174;43.198;27.824;2023-10-09T03:04:27;2.25;;;1.00;;
63089;SDS011;49174;43.198;27.824;2023-10-09T03:06:57;1.65;;;0.88;;
63089;SDS011;49174;43.198;27.824;2023-10-09T03:09:23;1.15;;;0.80;;
63089;SDS011;49174;43.198;27.824;2023-10-09T03:11:53;2.22;;;0.80;;
63089;SDS011;49174;43.198;27.824;2023-10-09T03:14:21;2.28;;;1.10;;
63089;SDS011;49174;43.198;27.824;2023-10-09T03:16:50;3.03;;;1.27;;
63089;SDS011;49174;43.198;27.824;2023-10-09T03:19:15;1.58;;;0.85;;
63089;SDS011;49174;43.198;27.824;2023-10-09T03:21:41;1.55;;;0.90;;
63089;SDS011;49174;43.198;27.824;2023-10-09T03:24:07;2.97;;;1.02;;
63089;SDS011;49174;43.198;27.824;2023-10-09T03:26:33;1.38;;;0.95;;
63089;SDS011;49174;43.198;27.824;2023-10-09T03:28:59;1.38;;;0.95;;
63089;SDS011;49174;43.198;27.824;2023-10-09T03:31:32;3.15;;;1.13;;
63089;SDS011;49174;43.198;27.824;2023-10-09T03:33:59;1.85;;;1.10;;
63089;SDS011;49174;43.198;27.824;2023-10-09T03:36:25;2.15;;;1.20;;
63089;SDS011;49174;43.198;27.824;2023-10-09T03:38:56;2.63;;;1.20;;
63089;SDS011;49174;43.198;27.824;2023-10-09T03:41:25;2.85;;;1.13;;
63089;SDS011;49174;43.198;27.824;2023-10-09T03:43:54;2.40;;;1.50;;
63089;SDS011;49174;43.198;27.824;2023-10-09T03:46:20;2.53;;;1.00;;
63089;SDS011;49174;43.198;27.824;2023-10-09T03:48:48;6.22;;;1.10;;
63089;SDS011;49174;43.198;27.824;2023-10-09T03:51:14;2.35;;;1.05;;
63089;SDS011;49174;43.198;27.824;2023-10-09T03:53:51;2.63;;;1.10;;
63089;SDS011;49174;43.198;27.824;2023-10-09T03:56:18;4.38;;;1.20;;
63089;SDS011;49174;43.198;27.824;2023-10-09T03:58:46;3.53;;;1.40;;
63089;SDS011;49174;43.198;27.824;2023-10-09T04:01:20;2.63;;;1.30;;
63089;SDS011;49174;43.198;27.824;2023-10-09T04:04:03;4.05;;;1.77;;
63089;SDS011;49174;43.198;27.824;2023-10-09T04:06:31;5.80;;;2.83;;
63089;SDS011;49174;43.198;27.824;2023-10-09T04:08:58;12.80;;;3.50;;
63089;SDS011;49174;43.198;27.824;2023-10-09T04:11:24;15.40;;;2.65;;
63089;SDS011;49174;43.198;27.824;2023-10-09T04:13:50;16.80;;;6.32;;
63089;SDS011;49174;43.198;27.824;2023-10-09T04:16:20;13.55;;;6.68;;
63089;SDS011;49174;43.198;27.824;2023-10-09T04:18:58;10.82;;;5.82;;
63089;SDS011;49174;43.198;27.824;2023-10-09T04:21:53;7.70;;;2.80;;
63089;SDS011;49174;43.198;27.824;2023-10-09T04:24:20;2.10;;;1.30;;
63089;SDS011;49174;43.198;27.824;2023-10-09T04:26:46;4.25;;;2.47;;
63089;SDS011;49174;43.198;27.824;2023-10-09T04:29:12;3.70;;;1.38;;
63089;SDS011;49174;43.198;27.824;2023-10-09T04:31:56;2.40;;;1.00;;
63089;SDS011;49174;43.198;27.824;2023-10-09T04:34:25;2.05;;;1.10;;
63089;SDS011;49174;43.198;27.824;2023-10-09T04:39:41;6.78;;;1.13;;
63089;SDS011;49174;43.198;27.824;2023-10-09T04:42:35;3.97;;;1.50;;
63089;SDS011;49174;43.198;27.824;2023-10-09T04:45:11;9.80;;;1.90;;
63089;SDS011;49174;43.198;27.824;2023-10-09T04:47:37;14.68;;;2.20;;
63089;SDS011;49174;43.198;27.824;2023-10-09T04:50:03;12.52;;;2.00;;
63089;SDS011;49174;43.198;27.824;2023-10-09T04:52:58;16.10;;;2.78;;
63089;SDS011;49174;43.198;27.824;2023-10-09T04:55:42;20.77;;;4.50;;
63089;SDS011;49174;43.198;27.824;2023-10-09T04:58:24;21.50;;;3.28;;
63089;SDS011;49174;43.198;27.824;2023-10-09T05:00:53;13.98;;;3.00;;
63089;SDS011;49174;43.198;27.824;2023-10-09T05:03:24;19.90;;;3.13;;
63089;SDS011;49174;43.198;27.824;2023-10-09T05:05:54;16.50;;;3.33;;
63089;SDS011;49174;43.198;27.824;2023-10-09T05:08:45;15.13;;;4.72;;
63089;SDS011;49174;43.198;27.824;2023-10-09T05:11:11;9.63;;;2.05;;
63089;SDS011;49174;43.198;27.824;2023-10-09T05:13:55;12.15;;;3.78;;
63089;SDS011;49174;43.198;27.824;2023-10-09T05:16:36;11.73;;;3.10;;
63089;SDS011;49174;43.198;27.824;2023-10-09T05:19:03;14.90;;;3.22;;
63089;SDS011;49174;43.198;27.824;2023-10-09T05:24:07;5.70;;;1.83;;
63089;SDS011;49174;43.198;27.824;2023-10-09T05:26:43;6.13;;;1.83;;
63089;SDS011;49174;43.198;27.824;2023-10-09T05:29:12;3.05;;;1.40;;
63089;SDS011;49174;43.198;27.824;2023-10-09T05:31:47;2.65;;;1.30;;
63089;SDS011;49174;43.198;27.824;2023-10-09T05:34:23;2.72;;;1.23;;
63089;SDS011;49174;43.198;27.824;2023-10-09T05:36:58;2.22;;;1.00;;
63089;SDS011;49174;43.198;27.824;2023-10-09T05:39:46;3.20;;;1.17;;
63089;SDS011;49174;43.198;27.824;2023-10-09T05:42:30;1.55;;;1.25;;
63089;SDS011;49174;43.198;27.824;2023-10-09T05:45:03;1.70;;;0.88;;
63089;SDS011;49174;43.198;27.824;2023-10-09T05:47:50;2.53;;;0.95;;
63089;SDS011;49174;43.198;27.824;2023-10-09T05:50:16;2.35;;;1.00;;
63089;SDS011;49174;43.198;27.824;2023-10-09T05:52:43;2.65;;;1.20;;
63089;SDS011;49174;43.198;27.824;2023-10-09T05:57:46;1.20;;;0.80;;
63089;SDS011;49174;43.198;27.824;2023-10-09T06:00:24;1.65;;;0.90;;
63089;SDS011;49174;43.198;27.824;2023-10-09T06:03:09;2.67;;;1.25;;
63089;SDS011;49174;43.198;27.824;2023-10-09T06:05:51;5.28;;;1.17;;
63089;SDS011;49174;43.198;27.824;2023-10-09T06:08:21;1.95;;;0.77;;
63089;SDS011;49174;43.198;27.824;2023-10-09T06:11:14;2.30;;;0.80;;
63089;SDS011;49174;43.198;27.824;2023-10-09T06:16:34;2.00;;;0.80;;
63089;SDS011;49174;43.198;27.824;2023-10-09T06:21:58;1.98;;;1.10;;
63089;SDS011;49174;43.198;27.824;2023-10-09T06:24:37;0.98;;;0.70;;
63089;SDS011;49174;43.198;27.824;2023-10-09T06:27:07;2.15;;;0.88;;
63089;SDS011;49174;43.198;27.824;2023-10-09T06:29:36;3.42;;;1.00;;
63089;SDS011;49174;43.198;27.824;2023-10-09T06:32:04;7.30;;;1.10;;
63089;SDS011;49174;43.198;27.824;2023-10-09T06:34:50;1.60;;;1.50;;
63089;SDS011;49174;43.198;27.824;2023-10-09T06:37:20;2.05;;;0.90;;
63089;SDS011;49174;43.198;27.824;2023-10-09T06:39:49;2.40;;;0.90;;
63089;SDS011;49174;43.198;27.824;2023-10-09T06:42:15;1.85;;;0.52;;
63089;SDS011;49174;43.198;27.824;2023-10-09T06:45:12;0.77;;;0.50;;
63089;SDS011;49174;43.198;27.824;2023-10-09T06:47:58;2.25;;;1.00;;
63089;SDS011;49174;43.198;27.824;2023-10-09T06:50:55;4.47;;;1.00;;
63089;SDS011;49174;43.198;27.824;2023-10-09T06:53:21;1.90;;;0.80;;
63089;SDS011;49174;43.198;27.824;2023-10-09T06:55:50;2.63;;;0.75;;
63089;SDS011;49174;43.198;27.824;2023-10-09T06:58:17;2.78;;;0.70;;
63089;SDS011;49174;43.198;27.824;2023-10-09T07:01:07;2.00;;;0.85;;
63089;SDS011;49174;43.198;27.824;2023-10-09T07:03:50;1.83;;;0.75;;
63089;SDS011;49174;43.198;27.824;2023-10-09T07:06:19;2.67;;;0.60;;
63089;SDS011;49174;43.198;27.824;2023-10-09T07:08:54;3.53;;;0.82;;
63089;SDS011;49174;43.198;27.824;2023-10-09T07:16:46;1.65;;;0.80;;
63089;SDS011;49174;43.198;27.824;2023-10-09T07:19:28;1.48;;;0.52;;
63089;SDS011;49174;43.198;27.824;2023-10-09T07:22:07;2.85;;;0.75;;
63089;SDS011;49174;43.198;27.824;2023-10-09T07:27:22;1.80;;;0.88;;
63089;SDS011;49174;43.198;27.824;2023-10-09T07:30:07;2.22;;;0.65;;
63089;SDS011;49174;43.198;27.824;2023-10-09T07:32:54;3.33;;;0.73;;
63089;SDS011;49174;43.198;27.824;2023-10-09T07:35:46;8.07;;;0.95;;
63089;SDS011;49174;43.198;27.824;2023-10-09T07:40:49;3.45;;;0.63;;
63089;SDS011;49174;43.198;27.824;2023-10-09T07:43:45;5.30;;;1.08;;
63089;SDS011;49174;43.198;27.824;2023-10-09T07:46:14;1.92;;;0.73;;
63089;SDS011;49174;43.198;27.824;2023-10-09T07:48:56;1.15;;;0.52;;
63089;SDS011;49174;43.198;27.824;2023-10-09T07:51:23;2.00;;;0.80;;
63089;SDS011;49174;43.198;27.824;2023-10-09T07:53:56;1.33;;;0.63;;
63089;SDS011;49174;43.198;27.824;2023-10-09T07:56:23;2.10;;;1.10;;
63089;SDS011;49174;43.198;27.824;2023-10-09T07:58:49;1.23;;;0.60;;
63089;SDS011;49174;43.198;27.824;2023-10-09T08:01:17;1.38;;;0.50;;
63089;SDS011;49174;43.198;27.824;2023-10-09T08:03:48;2.92;;;0.57;;
63089;SDS011;49174;43.198;27.824;2023-10-09T08:06:30;1.85;;;0.70;;
63089;SDS011;49174;43.198;27.824;2023-10-09T08:09:05;1.83;;;0.70;;
63089;SDS011;49174;43.198;27.824;2023-10-09T08:11:37;2.28;;;0.90;;
63089;SDS011;49174;43.198;27.824;2023-10-09T08:14:05;1.17;;;0.88;;
63089;SDS011;49174;43.198;27.824;2023-10-09T08:16:52;1.70;;;0.80;;
63089;SDS011;49174;43.198;27.824;2023-10-09T08:19:46;1.80;;;0.70;;
63089;SDS011;49174;43.198;27.824;2023-10-09T08:24:48;1.75;;;1.25;;
63089;SDS011;49174;43.198;27.824;2023-10-09T08:27:32;1.58;;;0.70;;
63089;SDS011;49174;43.198;27.824;2023-10-09T08:29:58;0.77;;;0.50;;
63089;SDS011;49174;43.198;27.824;2023-10-09T08:32:47;1.95;;;0.77;;
63089;SDS011;49174;43.198;27.824;2023-10-09T08:35:30;1.85;;;0.60;;
63089;SDS011;49174;43.198;27.824;2023-10-09T08:38:02;0.90;;;0.60;;
63089;SDS011;49174;43.198;27.824;2023-10-09T08:40:39;0.63;;;0.63;;
63089;SDS011;49174;43.198;27.824;2023-10-09T08:43:18;1.00;;;0.63;;
63089;SDS011;49174;43.198;27.824;2023-10-09T08:45:54;2.40;;;0.90;;
63089;SDS011;49174;43.198;27.824;2023-10-09T08:48:26;1.77;;;0.82;;
63089;SDS011;49174;43.198;27.824;2023-10-09T08:50:53;1.33;;;0.60;;
63089;SDS011;49174;43.198;27.824;2023-10-09T08:53:20;2.97;;;0.70;;
63089;SDS011;49174;43.198;27.824;2023-10-09T08:55:49;3.38;;;0.70;;
63089;SDS011;49174;43.198;27.824;2023-10-09T08:58:16;2.63;;;1.10;;
63089;SDS011;49174;43.198;27.824;2023-10-09T09:00:46;1.50;;;0.63;;
63089;SDS011;49174;43.198;27.824;2023-10-09T09:03:15;1.83;;;0.70;;
63089;SDS011;49174;43.198;27.824;2023-10-09T09:05:56;0.98;;;0.50;;
63089;SDS011;49174;43.198;27.824;2023-10-09T09:08:26;3.37;;;0.97;;
63089;SDS011;49174;43.198;27.824;2023-10-09T09:10:57;1.05;;;0.52;;
63089;SDS011;49174;43.198;27.824;2023-10-09T09:13:31;1.05;;;0.70;;
63089;SDS011;49174;43.198;27.824;2023-10-09T09:15:57;1.80;;;0.80;;
63089;SDS011;49174;43.198;27.824;2023-10-09T09:18:25;2.35;;;1.10;;
63089;SDS011;49174;43.198;27.824;2023-10-09T09:20:57;4.07;;;1.20;;
63089;SDS011;49174;43.198;27.824;2023-10-09T09:23:24;2.58;;;0.77;;
63089;SDS011;49174;43.198;27.824;2023-10-09T09:25:51;2.38;;;0.70;;
63089;SDS011;49174;43.198;27.824;2023-10-09T09:28:35;2.17;;;1.10;;
63089;SDS011;49174;43.198;27.824;2023-10-09T09:31:20;2.00;;;0.60;;
63089;SDS011;49174;43.198;27.824;2023-10-09T09:33:47;2.22;;;0.60;;
63089;SDS011;49174;43.198;27.824;2023-10-09T09:36:23;1.10;;;0.70;;
63089;SDS011;49174;43.198;27.824;2023-10-09T09:38:51;2.80;;;0.98;;
63089;SDS011;49174;43.198;27.824;2023-10-09T09:41:26;2.47;;;0.70;;
63089;SDS011;49174;43.198;27.824;2023-10-09T09:43:56;3.25;;;0.85;;
63089;SDS011;49174;43.198;27.824;2023-10-09T09:46:28;2.17;;;0.77;;
63089;SDS011;49174;43.198;27.824;2023-10-09T09:49:00;2.03;;;0.90;;
63089;SDS011;49174;43.198;27.824;2023-10-09T09:51:29;2.55;;;0.57;;
63089;SDS011;49174;43.198;27.824;2023-10-09T09:53:55;1.55;;;0.80;;
63089;SDS011;49174;43.198;27.824;2023-10-09T09:56:22;1.65;;;0.60;;
63089;SDS011;49174;43.198;27.824;2023-10-09T09:58:50;0.70;;;0.43;;
63089;SDS011;49174;43.198;27.824;2023-10-09T10:01:22;1.77;;;0.70;;
63089;SDS011;49174;43.198;27.824;2023-10-09T10:03:55;1.85;;;0.57;;
63089;SDS011;49174;43.198;27.824;2023-10-09T10:06:46;3.20;;;0.70;;
63089;SDS011;49174;43.198;27.824;2023-10-09T10:12:04;0.43;;;0.43;;
63089;SDS011;49174;43.198;27.824;2023-10-09T10:14:55;2.38;;;0.65;;
63089;SDS011;49174;43.198;27.824;2023-10-09T10:17:24;6.07;;;0.77;;
63089;SDS011;49174;43.198;27.824;2023-10-09T10:22:28;1.40;;;0.63;;
63089;SDS011;49174;43.198;27.824;2023-10-09T10:24:58;0.75;;;0.40;;
63089;SDS011;49174;43.198;27.824;2023-10-09T10:27:28;2.42;;;0.45;;
63089;SDS011;49174;43.198;27.824;2023-10-09T10:33:00;1.88;;;0.60;;
63089;SDS011;49174;43.198;27.824;2023-10-09T10:35:40;0.70;;;0.38;;
63089;SDS011;49174;43.198;27.824;2023-10-09T10:38:25;1.45;;;0.60;;
63089;SDS011;49174;43.198;27.824;2023-10-09T10:43:36;3.38;;;0.73;;
63089;SDS011;49174;43.198;27.824;2023-10-09T10:46:17;1.40;;;0.60;;
63089;SDS011;49174;43.198;27.824;2023-10-09T10:49:03;0.73;;;0.45;;
63089;SDS011;49174;43.198;27.824;2023-10-09T10:51:39;2.42;;;0.68;;
63089;SDS011;49174;43.198;27.824;2023-10-09T10:54:05;0.90;;;0.82;;
63089;SDS011;49174;43.198;27.824;2023-10-09T10:56:51;2.33;;;0.60;;
63089;SDS011;49174;43.198;27.824;2023-10-09T10:59:20;3.53;;;0.80;;
63089;SDS011;49174;43.198;27.824;2023-10-09T11:01:49;1.45;;;0.75;;
63089;SDS011;49174;43.198;27.824;2023-10-09T11:04:39;3.15;;;0.98;;
63089;SDS011;49174;43.198;27.824;2023-10-09T11:07:08;2.30;;;0.45;;
63089;SDS011;49174;43.198;27.824;2023-10-09T11:15:10;1.65;;;0.80;;
63089;SDS011;49174;43.198;27.824;2023-10-09T11:18:03;1.25;;;0.65;;
63089;SDS011;49174;43.198;27.824;2023-10-09T11:20:42;4.47;;;0.90;;
63089;SDS011;49174;43.198;27.824;2023-10-09T11:23:25;1.52;;;0.68;;
63089;SDS011;49174;43.198;27.824;2023-10-09T11:26:14;1.65;;;0.45;;
63089;SDS011;49174;43.198;27.824;2023-10-09T11:29:08;2.28;;;0.70;;
63089;SDS011;49174;43.198;27.824;2023-10-09T11:31:41;1.58;;;0.60;;
63089;SDS011;49174;43.198;27.824;2023-10-09T11:34:20;3.58;;;0.63;;
63089;SDS011;49174;43.198;27.824;2023-10-09T11:36:54;2.05;;;1.13;;
63089;SDS011;49174;43.198;27.824;2023-10-09T11:39:25;1.00;;;0.70;;
63089;SDS011;49174;43.198;27.824;2023-10-09T11:42:03;1.88;;;0.68;;
63089;SDS011;49174;43.198;27.824;2023-10-09T11:47:12;1.10;;;0.57;;
63089;SDS011;49174;43.198;27.824;2023-10-09T11:49:54;0.68;;;0.60;;
63089;SDS011;49174;43.198;27.824;2023-10-09T11:52:43;1.52;;;0.50;;
63089;SDS011;49174;43.198;27.824;2023-10-09T11:55:33;1.20;;;0.75;;
63089;SDS011;49174;43.198;27.824;2023-10-09T11:57:59;2.08;;;0.70;;
63089;SDS011;49174;43.198;27.824;2023-10-09T12:00:25;1.92;;;0.68;;
63089;SDS011;49174;43.198;27.824;2023-10-09T12:02:54;1.27;;;0.60;;
63089;SDS011;49174;43.198;27.824;2023-10-09T12:05:21;1.05;;;0.50;;
63089;SDS011;49174;43.198;27.824;2023-10-09T12:07:48;2.45;;;0.80;;
63089;SDS011;49174;43.198;27.824;2023-10-09T12:10:30;3.38;;;0.57;;
63089;SDS011;49174;43.198;27.824;2023-10-09T12:12:55;4.35;;;0.98;;
63089;SDS011;49174;43.198;27.824;2023-10-09T12:15:24;1.85;;;0.57;;
63089;SDS011;49174;43.198;27.824;2023-10-09T12:17:50;0.95;;;0.55;;
63089;SDS011;49174;43.198;27.824;2023-10-09T12:20:18;6.22;;;2.15;;
63089;SDS011;49174;43.198;27.824;2023-10-09T12:23:00;4.85;;;0.68;;
63089;SDS011;49174;43.198;27.824;2023-10-09T12:27:57;6.35;;;1.30;;
63089;SDS011;49174;43.198;27.824;2023-10-09T12:30:26;3.97;;;2.75;;
63089;SDS011;49174;43.198;27.824;2023-10-09T12:32:55;3.92;;;1.48;;
63089;SDS011;49174;43.198;27.824;2023-10-09T12:35:25;17.17;;;9.35;;
63089;SDS011;49174;43.198;27.824;2023-10-09T12:37:52;5.75;;;2.10;;
63089;SDS011;49174;43.198;27.824;2023-10-09T12:40:20;19.95;;;9.25;;
63089;SDS011;49174;43.198;27.824;2023-10-09T12:42:56;3.20;;;1.50;;
63089;SDS011;49174;43.198;27.824;2023-10-09T16:13:01;2.33;;;1.02;;
63089;SDS011;49174;43.198;27.824;2023-10-09T16:15:27;2.40;;;1.20;;
63089;SDS011;49174;43.198;27.824;2023-10-09T16:17:53;4.50;;;1.15;;
63089;SDS011;49174;43.198;27.824;2023-10-09T16:20:31;2.78;;;1.13;;
63089;SDS011;49174;43.198;27.824;2023-10-09T16:22:58;2.83;;;1.13;;
63089;SDS011;49174;43.198;27.824;2023-10-09T16:25:24;3.75;;;0.77;;
63089;SDS011;49174;43.198;27.824;2023-10-09T16:27:52;1.73;;;0.80;;
63089;SDS011;49174;43.198;27.824;2023-10-09T16:30:18;2.10;;;1.00;;
63089;SDS011;49174;43.198;27.824;2023-10-09T16:32:49;3.72;;;0.90;;
63089;SDS011;49174;43.198;27.824;2023-10-09T16:35:18;1.40;;;0.90;;
63089;SDS011;49174;43.198;27.824;2023-10-09T16:37:47;4.68;;;1.08;;
63089;SDS011;49174;43.198;27.824;2023-10-09T16:42:57;1.70;;;0.90;;
63089;SDS011;49174;43.198;27.824;2023-10-09T16:45:43;1.77;;;0.93;;
63089;SDS011;49174;43.198;27.824;2023-10-09T16:48:14;3.10;;;1.17;;
63089;SDS011;49174;43.198;27.824;2023-10-09T16:50:43;0.93;;;0.80;;
63089;SDS011;49174;43.198;27.824;2023-10-09T16:53:24;3.55;;;1.20;;
63089;SDS011;49174;43.198;27.824;2023-10-09T16:56:07;1.83;;;1.00;;
63089;SDS011;49174;43.198;27.824;2023-10-09T16:58:37;1.70;;;1.27;;
63089;SDS011;49174;43.198;27.824;2023-10-09T17:01:04;2.78;;;1.33;;
63089;SDS011;49174;43.198;27.824;2023-10-09T17:03:36;1.67;;;0.90;;
63089;SDS011;49174;43.198;27.824;2023-10-09T17:06:10;2.70;;;1.10;;
63089;SDS011;49174;43.198;27.824;2023-10-09T17:08:39;3.08;;;1.15;;
63089;SDS011;49174;43.198;27.824;2023-10-09T17:11:08;3.67;;;1.65;;
63089;SDS011;49174;43.198;27.824;2023-10-09T17:13:38;6.82;;;2.47;;
63089;SDS011;49174;43.198;27.824;2023-10-09T17:16:17;3.30;;;1.13;;
63089;SDS011;49174;43.198;27.824;2023-10-09T17:18:47;2.97;;;1.20;;
63089;SDS011;49174;43.198;27.824;2023-10-09T17:21:13;5.63;;;1.42;;
63089;SDS011;49174;43.198;27.824;2023-10-09T17:23:40;4.13;;;1.17;;
63089;SDS011;49174;43.198;27.824;2023-10-09T17:26:11;3.67;;;1.30;;
63089;SDS011;49174;43.198;27.824;2023-10-09T17:28:43;3.45;;;1.38;;
63089;SDS011;49174;43.198;27.824;2023-10-09T17:31:08;3.97;;;1.45;;
63089;SDS011;49174;43.198;27.824;2023-10-09T17:33:34;3.38;;;1.50;;
63089;SDS011;49174;43.198;27.824;2023-10-09T17:36:00;18.27;;;2.22;;
63089;SDS011;49174;43.198;27.824;2023-10-09T17:38:27;5.15;;;1.60;;
63089;SDS011;49174;43.198;27.824;2023-10-09T17:40:55;2.83;;;1.20;;
63089;SDS011;49174;43.198;27.824;2023-10-09T17:43:24;2.10;;;1.08;;
63089;SDS011;49174;43.198;27.824;2023-10-09T17:45:50;2.50;;;1.30;;
63089;SDS011;49174;43.198;27.824;2023-10-09T17:48:23;1.30;;;0.73;;
63089;SDS011;49174;43.198;27.824;2023-10-09T17:50:49;5.30;;;1.45;;
63089;SDS011;49174;43.198;27.824;2023-10-09T17:53:16;1.90;;;1.20;;
63089;SDS011;49174;43.198;27.824;2023-10-09T17:55:44;2.00;;;0.90;;
63089;SDS011;49174;43.198;27.824;2023-10-09T17:58:10;2.83;;;1.15;;
63089;SDS011;49174;43.198;27.824;2023-10-09T18:00:41;4.45;;;1.73;;
63089;SDS011;49174;43.198;27.824;2023-10-09T18:03:09;7.28;;;1.27;;
63089;SDS011;49174;43.198;27.824;2023-10-09T18:05:40;3.50;;;1.05;;
63089;SDS011;49174;43.198;27.824;2023-10-09T18:08:08;1.75;;;0.80;;
63089;SDS011;49174;43.198;27.824;2023-10-09T18:10:40;2.03;;;1.08;;
63089;SDS011;49174;43.198;27.824;2023-10-09T18:13:08;2.13;;;1.00;;
63089;SDS011;49174;43.198;27.824;2023-10-09T18:15:45;3.92;;;1.10;;
63089;SDS011;49174;43.198;27.824;2023-10-09T18:18:12;3.53;;;1.20;;
63089;SDS011;49174;43.198;27.824;2023-10-09T18:20:44;4.65;;;1.15;;
63089;SDS011;49174;43.198;27.824;2023-10-09T18:23:17;2.80;;;1.00;;
63089;SDS011;49174;43.198;27.824;2023-10-09T18:25:44;3.28;;;1.10;;
63089;SDS011;49174;43.198;27.824;2023-10-09T18:28:18;2.75;;;1.00;;
63089;SDS011;49174;43.198;27.824;2023-10-09T18:30:44;3.22;;;1.13;;
63089;SDS011;49174;43.198;27.824;2023-10-09T18:33:14;1.95;;;1.10;;
63089;SDS011;49174;43.198;27.824;2023-10-09T18:35:40;2.45;;;1.10;;
63089;SDS011;49174;43.198;27.824;2023-10-09T18:38:05;1.52;;;0.82;;
63089;SDS011;49174;43.198;27.824;2023-10-09T18:40:31;3.03;;;0.80;;
63089;SDS011;49174;43.198;27.824;2023-10-09T18:42:57;6.32;;;1.20;;
63089;SDS011;49174;43.198;27.824;2023-10-09T18:45:23;3.15;;;1.02;;
63089;SDS011;49174;43.198;27.824;2023-10-09T18:47:50;4.57;;;1.10;;
63089;SDS011;49174;43.198;27.824;2023-10-09T18:50:18;3.38;;;1.05;;
63089;SDS011;49174;43.198;27.824;2023-10-09T18:52:45;1.27;;;0.88;;
63089;SDS011;49174;43.198;27.824;2023-10-09T18:55:14;1.95;;;0.95;;
63089;SDS011;49174;43.198;27.824;2023-10-09T18:57:40;4.35;;;1.15;;
63089;SDS011;49174;43.198;27.824;2023-10-09T19:00:06;2.45;;;1.00;;
63089;SDS011;49174;43.198;27.824;2023-10-09T19:02:37;2.40;;;1.10;;
63089;SDS011;49174;43.198;27.824;2023-10-09T19:05:06;3.22;;;1.00;;
63089;SDS011;49174;43.198;27.824;2023-10-09T19:07:35;2.70;;;1.10;;
63089;SDS011;49174;43.198;27.824;2023-10-09T19:10:01;2.17;;;1.10;;
63089;SDS011;49174;43.198;27.824;2023-10-09T19:12:27;3.05;;;1.10;;
63089;SDS011;49174;43.198;27.824;2023-10-09T19:14:52;2.17;;;1.13;;
63089;SDS011;49174;43.198;27.824;2023-10-09T19:17:18;2.38;;;0.80;;
63089;SDS011;49174;43.198;27.824;2023-10-09T19:19:44;1.48;;;1.00;;
63089;SDS011;49174;43.198;27.824;2023-10-09T19:22:10;5.82;;;1.52;;
63089;SDS011;49174;43.198;27.824;2023-10-09T19:24:35;2.67;;;1.15;;
63089;SDS011;49174;43.198;27.824;2023-10-09T19:27:02;6.40;;;1.23;;